Time;durP1;ratioP1;P1;durP2;ratioP2;P2;SDS_P1;SDS_P2;PMS_P1;PMS_P2;Temp;Humidity;BMP_temperature;BMP_pressure;BME280_temperature;BME280_humidity;BME280_pressure;Samples;Min_cycle;Max_cycle;Signal;HPM_P1;HPM_P2
2023/03/13 00:01:23;;;;;;;2.53;1.33;;;10.00;99.90;;;;;;6268191;22;20003;-91
2023/03/13 00:03:49;;;;;;;1.75;1.60;;;10.00;99.90;;;;;;6243082;23;20003;-88
2023/03/13 00:06:15;;;;;;;3.20;2.10;;;10.00;99.90;;;;;;6217961;23;20017;-88
2023/03/13 00:08:42;;;;;;;1.48;1.38;;;10.00;99.90;;;;;;6243560;23;20016;-89
2023/03/13 00:11:09;;;;;;;1.33;1.15;;;10.00;99.90;;;;;;6242609;22;20013;-88
2023/03/13 00:13:35;;;;;;;1.38;1.27;;;10.10;99.90;;;;;;6243745;23;20008;-87
2023/03/13 00:16:07;;;;;;;1.60;1.40;;;10.10;99.90;;;;;;6243371;23;20007;-85
2023/03/13 00:18:33;;;;;;;2.92;1.60;;;10.10;99.90;;;;;;6243621;23;19989;-88
2023/03/13 00:21:07;;;;;;;1.58;1.48;;;10.10;99.90;;;;;;6243876;23;19992;-88
2023/03/13 00:23:34;;;;;;;1.48;1.30;;;10.10;99.90;;;;;;6242577;22;19993;-85
2023/03/13 00:26:02;;;;;;;1.83;1.73;;;10.10;99.90;;;;;;6242646;22;20048;-86
2023/03/13 00:28:30;;;;;;;2.28;1.40;;;10.20;99.90;;;;;;6242890;22;20005;-86
2023/03/13 00:31:07;;;;;;;1.45;1.10;;;10.20;99.90;;;;;;6192749;23;20015;-87
2023/03/13 00:33:38;;;;;;;1.98;1.40;;;10.20;99.90;;;;;;6243405;23;20068;-87
2023/03/13 00:36:15;;;;;;;1.90;1.50;;;10.20;99.90;;;;;;6242767;22;19997;-87
2023/03/13 00:38:41;;;;;;;1.25;1.10;;;10.20;99.90;;;;;;6247811;22;20027;-86
2023/03/13 00:41:11;;;;;;;4.28;1.38;;;10.30;99.90;;;;;;6273997;22;19992;-86
2023/03/13 00:43:37;;;;;;;1.10;1.00;;;10.20;99.90;;;;;;6247854;22;19992;-86
2023/03/13 00:46:03;;;;;;;1.30;1.20;;;10.30;99.90;;;;;;6273809;22;20051;-86
2023/03/13 00:48:29;;;;;;;0.90;0.88;;;10.30;99.90;;;;;;6247651;23;20039;-88
2023/03/13 00:50:55;;;;;;;1.02;0.93;;;10.30;99.90;;;;;;6273356;22;20016;-88
2023/03/13 00:53:21;;;;;;;1.23;1.10;;;10.30;99.90;;;;;;6247575;22;19996;-86
2023/03/13 00:56:05;;;;;;;0.98;0.90;;;10.30;99.90;;;;;;6247695;22;19988;-87
2023/03/13 00:58:37;;;;;;;0.93;0.93;;;10.30;99.90;;;;;;6273671;22;19908;-87
2023/03/13 01:01:08;;;;;;;0.73;0.73;;;10.30;99.90;;;;;;6247435;22;20012;-88
2023/03/13 01:03:34;;;;;;;3.00;0.75;;;10.30;99.90;;;;;;6246492;23;19992;-91
2023/03/13 01:06:02;;;;;;;0.80;0.80;;;10.30;99.90;;;;;;6241513;23;20038;-96
2023/03/13 01:08:29;;;;;;;1.08;0.65;;;10.30;99.90;;;;;;6240754;23;20008;-95
2023/03/13 01:11:04;;;;;;;0.68;0.45;;;10.40;99.90;;;;;;6240890;23;20004;-95
2023/03/13 01:13:33;;;;;;;0.52;0.43;;;10.40;99.90;;;;;;6236999;23;20083;-94
2023/03/13 01:16:04;;;;;;;0.40;0.40;;;10.40;99.90;;;;;;6237641;23;20257;-93
2023/03/13 01:18:29;;;;;;;1.27;0.38;;;10.50;99.90;;;;;;6272642;22;20003;-86
2023/03/13 01:20:55;;;;;;;0.80;0.30;;;10.50;99.90;;;;;;6247633;23;20016;-87
2023/03/13 01:23:22;;;;;;;0.77;0.45;;;10.50;99.90;;;;;;6246160;23;20004;-90
2023/03/13 01:25:48;;;;;;;1.30;0.70;;;10.60;99.90;;;;;;6216814;23;20009;-93
2023/03/13 01:28:14;;;;;;;1.00;0.73;;;10.60;99.90;;;;;;6238740;23;20060;-94
2023/03/13 01:30:39;;;;;;;1.20;0.55;;;10.60;99.90;;;;;;6242843;22;20138;-89
2023/03/13 01:33:05;;;;;;;1.08;0.40;;;10.60;99.90;;;;;;6247799;23;20000;-88
2023/03/13 01:35:31;;;;;;;1.52;0.63;;;10.60;99.90;;;;;;6247660;22;20000;-86
2023/03/13 01:37:56;;;;;;;0.45;0.30;;;10.70;99.90;;;;;;6245799;23;20023;-94
2023/03/13 01:40:22;;;;;;;1.13;0.52;;;10.70;99.90;;;;;;6240278;23;20005;-91
2023/03/13 01:42:58;;;;;;;0.63;0.40;;;10.70;99.90;;;;;;6239093;23;20009;-96
2023/03/13 01:46:01;;;;;;;0.73;0.55;;;10.70;99.90;;;;;;6215205;23;20048;-89
2023/03/13 01:48:54;;;;;;;0.55;0.40;;;10.70;99.90;;;;;;6217310;23;20068;-87
2023/03/13 01:51:40;;;;;;;0.70;0.70;;;10.70;99.90;;;;;;6216359;23;19996;-90
2023/03/13 01:54:23;;;;;;;0.55;0.30;;;10.70;99.90;;;;;;6237117;23;20020;-91
2023/03/13 01:56:54;;;;;;;1.98;0.70;;;10.70;99.90;;;;;;6234673;23;20511;-93
2023/03/13 01:59:33;;;;;;;1.98;0.55;;;10.70;99.90;;;;;;6237798;23;20049;-92
2023/03/13 02:02:01;;;;;;;1.95;0.60;;;10.70;99.90;;;;;;6238841;22;20009;-95
2023/03/13 02:04:32;;;;;;;1.38;0.60;;;10.70;99.90;;;;;;6228705;23;20001;-94
2023/03/13 02:07:01;;;;;;;0.43;0.43;;;10.70;99.90;;;;;;6226451;23;20000;-93
2023/03/13 02:09:30;;;;;;;2.17;0.77;;;10.70;99.90;;;;;;6199024;23;20054;-95
2023/03/13 02:12:20;;;;;;;3.85;1.02;;;10.80;99.90;;;;;;6220168;23;20027;-96
2023/03/13 02:14:49;;;;;;;1.38;0.65;;;10.80;99.90;;;;;;6234659;23;20003;-95
2023/03/13 02:17:14;;;;;;;1.55;0.68;;;10.90;99.90;;;;;;6194443;23;20440;-94
2023/03/13 02:19:47;;;;;;;2.08;0.93;;;10.90;99.90;;;;;;6228815;23;20051;-94
2023/03/13 02:22:19;;;;;;;2.70;0.70;;;10.90;99.90;;;;;;6223313;23;20009;-94
2023/03/13 02:24:53;;;;;;;3.05;0.47;;;10.90;99.90;;;;;;6198234;23;20012;-93
2023/03/13 02:27:21;;;;;;;1.15;0.57;;;11.00;99.90;;;;;;6225750;23;19996;-96
2023/03/13 02:29:47;;;;;;;3.35;1.60;;;11.00;99.90;;;;;;6196700;23;20016;-95
2023/03/13 02:32:14;;;;;;;2.60;0.55;;;11.00;99.90;;;;;;6224366;23;20015;-95
2023/03/13 02:34:43;;;;;;;0.75;0.40;;;11.00;99.90;;;;;;6251724;23;20436;-95
2023/03/13 02:37:12;;;;;;;2.65;0.80;;;11.00;99.90;;;;;;6221784;23;20139;-95
2023/03/13 02:39:44;;;;;;;0.85;0.45;;;11.00;99.90;;;;;;6195559;23;20001;-95
2023/03/13 02:42:11;;;;;;;0.55;0.45;;;11.00;99.90;;;;;;6197055;23;20091;-95
2023/03/13 02:44:39;;;;;;;0.73;0.20;;;11.00;99.90;;;;;;6202407;23;19996;-94
2023/03/13 02:47:04;;;;;;;0.13;0.13;;;11.00;99.90;;;;;;6238607;23;20495;-95
2023/03/13 02:49:30;;;;;;;0.30;0.10;;;11.00;99.90;;;;;;6205327;23;20004;-95
2023/03/13 02:51:59;;;;;;;0.28;0.17;;;11.00;99.90;;;;;;6234009;23;20005;-93
2023/03/13 02:54:32;;;;;;;0.38;0.20;;;11.00;99.90;;;;;;6209511;23;20020;-93
2023/03/13 02:57:02;;;;;;;0.65;0.08;;;11.00;99.90;;;;;;6206524;23;20039;-93
2023/03/13 02:59:27;;;;;;;0.35;0.17;;;11.00;99.90;;;;;;6216558;23;20043;-95
2023/03/13 03:01:55;;;;;;;1.52;0.20;;;11.00;99.90;;;;;;6244562;23;20024;-92
2023/03/13 03:04:22;;;;;;;1.75;0.10;;;11.00;99.90;;;;;;6243154;22;19997;-88
2023/03/13 03:06:48;;;;;;;0.30;0.20;;;11.00;99.90;;;;;;6242567;22;20004;-89
2023/03/13 03:09:17;;;;;;;0.20;0.10;;;11.00;99.90;;;;;;6217853;23;20012;-96
2023/03/13 03:11:42;;;;;;;0.00;0.00;;;11.00;99.90;;;;;;6240737;22;20009;-91
2023/03/13 03:14:09;;;;;;;0.20;0.05;;;11.00;99.90;;;;;;6214130;23;20028;-94
2023/03/13 03:16:35;;;;;;;0.10;0.05;;;11.00;99.90;;;;;;6235235;23;19988;-95
2023/03/13 03:19:01;;;;;;;0.82;0.10;;;11.00;99.90;;;;;;6212027;23;20028;-93
2023/03/13 03:21:26;;;;;;;0.55;0.10;;;11.00;99.90;;;;;;6211351;23;20004;-95
2023/03/13 03:23:52;;;;;;;0.20;0.10;;;11.10;99.90;;;;;;6214513;23;20027;-90
2023/03/13 03:26:18;;;;;;;0.20;0.17;;;11.10;99.90;;;;;;6218707;23;20005;-90
2023/03/13 03:28:43;;;;;;;0.20;0.20;;;11.10;99.90;;;;;;6218397;23;19989;-87
2023/03/13 03:31:12;;;;;;;0.52;0.30;;;11.10;99.90;;;;;;6217683;23;19993;-87
2023/03/13 03:33:39;;;;;;;0.47;0.15;;;11.00;99.90;;;;;;6218432;23;20065;-91
2023/03/13 03:36:26;;;;;;;0.47;0.20;;;11.00;99.90;;;;;;6240287;23;20023;-89
2023/03/13 03:38:52;;;;;;;0.25;0.20;;;11.00;99.90;;;;;;6216197;23;20008;-90
2023/03/13 03:41:18;;;;;;;0.28;0.10;;;11.00;99.90;;;;;;6217487;23;20076;-92
2023/03/13 03:43:46;;;;;;;0.43;0.20;;;11.10;99.90;;;;;;6210567;23;20064;-93
2023/03/13 03:46:12;;;;;;;0.45;0.10;;;11.10;99.90;;;;;;6233425;23;20008;-94
2023/03/13 03:48:37;;;;;;;1.35;0.20;;;11.10;99.90;;;;;;6231427;23;20020;-94
2023/03/13 03:51:03;;;;;;;0.52;0.10;;;11.10;99.90;;;;;;6209463;23;20008;-91
2023/03/13 03:53:31;;;;;;;0.38;0.20;;;11.10;99.90;;;;;;6240604;23;20010;-93
2023/03/13 03:55:58;;;;;;;0.98;0.22;;;11.10;99.90;;;;;;6231410;23;20336;-94
2023/03/13 03:58:24;;;;;;;4.43;0.52;;;11.10;99.90;;;;;;6228603;23;20020;-96
2023/03/13 04:00:49;;;;;;;2.20;0.60;;;11.20;99.90;;;;;;6204580;23;20000;-93
2023/03/13 04:03:16;;;;;;;3.05;0.57;;;11.20;99.90;;;;;;6204647;23;20340;-95
2023/03/13 04:05:41;;;;;;;1.80;0.80;;;11.20;99.90;;;;;;6233321;23;20055;-94
2023/03/13 04:08:08;;;;;;;4.68;0.65;;;11.20;99.90;;;;;;6234138;23;20001;-93
2023/03/13 04:10:34;;;;;;;3.15;0.63;;;11.30;99.90;;;;;;6228102;23;20031;-96
2023/03/13 04:12:59;;;;;;;2.63;0.80;;;11.30;99.90;;;;;;6203497;23;20000;-95
2023/03/13 04:15:25;;;;;;;5.82;0.80;;;11.30;99.90;;;;;;6228804;23;20012;-91
2023/03/13 04:17:51;;;;;;;6.32;1.00;;;11.30;99.90;;;;;;6235856;23;20012;-91
2023/03/13 04:20:16;;;;;;;6.25;0.93;;;11.30;99.90;;;;;;6238704;23;20028;-92
2023/03/13 04:22:43;;;;;;;6.78;1.05;;;11.20;99.90;;;;;;6232898;23;20024;-93
2023/03/13 04:25:09;;;;;;;2.90;0.55;;;11.20;99.90;;;;;;6229666;23;20017;-92
2023/03/13 04:27:35;;;;;;;5.82;1.13;;;11.20;99.90;;;;;;6204138;23;20011;-94
2023/03/13 04:30:00;;;;;;;7.57;1.33;;;11.20;99.90;;;;;;6200766;23;20005;-94
2023/03/13 04:32:26;;;;;;;5.15;1.13;;;11.20;99.90;;;;;;6232474;23;20052;-93
2023/03/13 04:34:52;;;;;;;4.78;1.10;;;11.20;99.90;;;;;;6240120;23;20020;-95
2023/03/13 04:37:18;;;;;;;4.32;0.80;;;11.20;99.90;;;;;;6237959;23;20001;-94
2023/03/13 04:39:44;;;;;;;6.00;0.90;;;11.20;99.90;;;;;;6239132;23;20052;-93
2023/03/13 04:42:11;;;;;;;3.97;1.65;;;11.20;99.90;;;;;;6239944;23;20024;-94
2023/03/13 04:44:37;;;;;;;5.72;0.93;;;11.20;99.90;;;;;;6238211;23;20008;-93
2023/03/13 04:47:03;;;;;;;5.40;1.10;;;11.20;99.90;;;;;;6239926;23;19992;-87
2023/03/13 04:49:29;;;;;;;5.55;1.30;;;11.20;99.90;;;;;;6241472;22;19996;-90
2023/03/13 04:51:55;;;;;;;8.95;1.38;;;11.10;99.90;;;;;;6242466;22;20008;-89
2023/03/13 04:54:21;;;;;;;8.82;1.42;;;11.10;99.90;;;;;;6239977;22;20056;-89
2023/03/13 04:56:47;;;;;;;7.95;1.90;;;11.10;99.90;;;;;;6242539;23;20008;-87
2023/03/13 04:59:14;;;;;;;7.90;1.55;;;11.00;99.90;;;;;;6214003;23;20065;-92
2023/03/13 05:01:41;;;;;;;9.15;1.48;;;11.10;99.90;;;;;;6241427;22;20072;-91
2023/03/13 05:04:07;;;;;;;7.43;1.60;;;11.10;99.90;;;;;;6242299;22;19993;-87
2023/03/13 05:06:33;;;;;;;11.90;1.90;;;11.10;99.90;;;;;;6191959;23;20004;-87
2023/03/13 05:08:59;;;;;;;12.35;2.10;;;11.10;99.90;;;;;;6217087;23;20009;-86
2023/03/13 05:11:25;;;;;;;13.80;1.98;;;11.10;99.90;;;;;;6242058;22;20017;-88
2023/03/13 05:13:50;;;;;;;9.73;1.83;;;11.10;99.90;;;;;;6216282;23;20083;-88
2023/03/13 05:16:16;;;;;;;17.73;1.65;;;11.10;99.90;;;;;;6242652;23;20024;-90
2023/03/13 05:18:41;;;;;;;9.00;1.55;;;11.00;99.90;;;;;;6216857;23;20020;-89
2023/03/13 05:21:07;;;;;;;14.88;1.50;;;11.00;99.90;;;;;;6215928;23;20016;-89
2023/03/13 05:23:34;;;;;;;7.35;1.42;;;11.00;99.90;;;;;;6212313;23;20016;-92
2023/03/13 05:26:00;;;;;;;9.45;2.20;;;11.00;99.90;;;;;;6215395;23;19997;-93
2023/03/13 05:28:26;;;;;;;6.82;1.15;;;11.00;99.90;;;;;;6238769;23;20060;-95
2023/03/13 05:30:52;;;;;;;10.43;1.85;;;11.00;99.90;;;;;;6235317;23;20012;-95
2023/03/13 05:33:20;;;;;;;10.80;2.03;;;11.10;99.90;;;;;;6233382;23;20003;-93
2023/03/13 05:35:46;;;;;;;6.80;1.20;;;11.10;99.90;;;;;;6202266;23;20004;-94
2023/03/13 05:38:13;;;;;;;9.50;1.65;;;11.00;99.90;;;;;;6223852;23;20016;-95
2023/03/13 05:40:39;;;;;;;11.50;1.70;;;11.00;99.90;;;;;;6194673;23;20012;-93
2023/03/13 05:43:04;;;;;;;15.70;1.58;;;11.00;99.90;;;;;;6221573;23;20005;-93
2023/03/13 05:45:30;;;;;;;10.35;2.10;;;11.00;99.90;;;;;;6203519;23;20009;-95
2023/03/13 05:47:57;;;;;;;4.32;1.27;;;11.10;99.90;;;;;;6200397;23;20103;-91
2023/03/13 05:50:24;;;;;;;13.32;1.95;;;11.10;99.90;;;;;;6205298;23;20055;-94
2023/03/13 05:52:50;;;;;;;14.43;2.00;;;11.10;99.90;;;;;;6228954;23;19996;-96
2023/03/13 05:55:16;;;;;;;11.90;1.73;;;11.10;99.90;;;;;;6205222;23;20013;-93
2023/03/13 05:57:46;;;;;;;11.05;2.50;;;11.10;99.90;;;;;;6230254;23;20044;-93
2023/03/13 06:00:13;;;;;;;5.15;1.50;;;11.10;99.90;;;;;;6236096;23;20089;-91
2023/03/13 06:02:40;;;;;;;8.48;2.00;;;11.00;99.90;;;;;;6229281;23;20012;-93
2023/03/13 06:05:06;;;;;;;10.98;2.00;;;11.00;99.90;;;;;;6233024;23;20001;-94
2023/03/13 06:07:32;;;;;;;13.63;2.28;;;11.00;99.90;;;;;;6235081;23;20055;-95
2023/03/13 06:09:57;;;;;;;12.68;3.47;;;11.00;99.90;;;;;;6213427;23;20007;-92
2023/03/13 06:12:23;;;;;;;16.58;2.40;;;11.00;99.90;;;;;;6242568;23;20017;-91
2023/03/13 06:14:50;;;;;;;15.95;2.78;;;10.90;99.90;;;;;;6240517;23;20016;-92
2023/03/13 06:17:15;;;;;;;17.23;4.00;;;10.90;99.90;;;;;;6192187;23;20035;-94
2023/03/13 06:19:41;;;;;;;7.85;1.33;;;10.80;99.90;;;;;;6205268;23;20060;-92
2023/03/13 06:22:07;;;;;;;14.07;1.45;;;10.70;99.90;;;;;;6213287;23;20031;-93
2023/03/13 06:24:33;;;;;;;7.72;1.13;;;10.40;99.90;;;;;;6213312;23;20031;-92
2023/03/13 06:26:58;;;;;;;7.55;1.10;;;10.10;99.90;;;;;;6215520;23;20023;-94
2023/03/13 06:29:24;;;;;;;6.20;1.15;;;9.90;99.90;;;;;;6218952;23;20079;-94
2023/03/13 06:31:50;;;;;;;14.73;2.35;;;9.70;99.90;;;;;;6221089;23;20034;-91
2023/03/13 06:34:16;;;;;;;18.00;3.00;;;9.70;99.90;;;;;;6198387;23;20015;-93
2023/03/13 06:36:42;;;;;;;22.00;2.72;;;9.70;99.90;;;;;;6195229;23;20027;-93
2023/03/13 06:39:09;;;;;;;14.43;3.38;;;9.80;99.90;;;;;;6195743;23;20001;-92
2023/03/13 06:41:35;;;;;;;5.57;1.45;;;9.80;99.90;;;;;;6215898;23;20064;-91
2023/03/13 06:44:04;;;;;;;10.43;2.58;;;9.80;99.90;;;;;;6219538;23;19996;-95
2023/03/13 06:46:30;;;;;;;19.38;2.03;;;9.80;99.90;;;;;;6200833;23;20040;-94
2023/03/13 06:48:57;;;;;;;7.63;1.63;;;9.80;99.90;;;;;;6195458;23;20004;-89
2023/03/13 06:51:25;;;;;;;13.27;1.95;;;9.80;99.90;;;;;;6222154;23;20452;-93
2023/03/13 06:53:51;;;;;;;6.45;1.38;;;9.80;99.90;;;;;;6201720;23;20441;-91
2023/03/13 06:56:17;;;;;;;7.78;1.98;;;9.80;99.90;;;;;;6232639;23;20008;-92
2023/03/13 06:58:47;;;;;;;13.75;1.80;;;9.70;99.90;;;;;;6228915;23;20011;-92
2023/03/13 07:01:14;;;;;;;12.90;1.88;;;9.70;99.90;;;;;;6222971;23;20004;-93
2023/03/13 07:03:40;;;;;;;10.60;1.70;;;9.60;99.90;;;;;;6226976;23;20032;-91
2023/03/13 07:06:07;;;;;;;9.30;1.60;;;9.70;99.90;;;;;;6198221;23;20090;-94
2023/03/13 07:08:34;;;;;;;9.82;2.40;;;9.60;99.90;;;;;;6226716;23;20032;-94
2023/03/13 07:11:06;;;;;;;12.27;2.67;;;9.60;99.90;;;;;;6229881;23;20005;-89
2023/03/13 07:13:31;;;;;;;13.93;1.92;;;9.60;99.90;;;;;;6226501;23;20012;-93
2023/03/13 07:16:03;;;;;;;7.65;1.70;;;9.60;99.90;;;;;;6225415;23;20047;-93
2023/03/13 07:18:29;;;;;;;10.52;2.15;;;9.60;99.90;;;;;;6229866;23;20016;-88
2023/03/13 07:20:56;;;;;;;9.75;1.38;;;9.60;99.90;;;;;;6201697;23;20008;-93
2023/03/13 07:23:23;;;;;;;23.30;4.22;;;9.60;99.90;;;;;;6222750;23;20086;-91
2023/03/13 07:25:57;;;;;;;15.38;1.73;;;9.60;99.90;;;;;;6195181;23;20012;-93
2023/03/13 07:28:23;;;;;;;12.88;2.03;;;9.60;99.90;;;;;;6195369;23;20052;-93
2023/03/13 07:30:49;;;;;;;13.45;1.90;;;9.60;99.90;;;;;;6227197;23;20005;-92
2023/03/13 07:33:17;;;;;;;8.65;2.15;;;9.60;99.90;;;;;;6208340;23;20004;-92
2023/03/13 07:35:51;;;;;;;10.90;1.77;;;9.60;99.90;;;;;;6210375;23;20008;-93
2023/03/13 07:38:18;;;;;;;13.90;2.65;;;9.70;99.90;;;;;;6235834;23;20043;-90
2023/03/13 07:40:52;;;;;;;7.15;1.23;;;9.70;99.90;;;;;;6236356;23;20013;-93
2023/03/13 07:43:18;;;;;;;13.05;2.28;;;9.70;99.90;;;;;;6211283;23;20008;-94
2023/03/13 07:45:58;;;;;;;5.00;0.98;;;9.60;99.90;;;;;;6234559;23;20067;-94
2023/03/13 07:48:27;;;;;;;9.02;1.30;;;9.60;99.90;;;;;;6228810;23;20031;-92
2023/03/13 07:50:54;;;;;;;7.50;1.92;;;9.60;99.90;;;;;;6206266;23;19988;-93
2023/03/13 07:53:20;;;;;;;5.03;0.93;;;9.60;99.90;;;;;;6235243;23;20012;-94
2023/03/13 07:55:54;;;;;;;11.90;1.67;;;9.60;99.90;;;;;;6213343;23;20009;-95
2023/03/13 07:58:20;;;;;;;5.93;1.13;;;9.60;99.90;;;;;;6237153;23;20000;-91
2023/03/13 08:00:46;;;;;;;7.85;1.00;;;9.60;99.90;;;;;;6238445;23;19992;-95
2023/03/13 08:03:12;;;;;;;10.35;1.50;;;9.50;99.90;;;;;;6237150;23;20011;-94
2023/03/13 08:05:38;;;;;;;11.20;1.77;;;9.50;99.90;;;;;;6210509;23;20287;-94
2023/03/13 08:08:04;;;;;;;9.85;1.90;;;9.60;99.90;;;;;;6206041;23;20011;-96
2023/03/13 08:10:30;;;;;;;15.68;2.58;;;9.60;99.90;;;;;;6210898;23;20011;-92
2023/03/13 08:12:56;;;;;;;22.75;2.78;;;9.60;99.90;;;;;;6237715;23;20005;-94
2023/03/13 08:15:24;;;;;;;15.25;2.40;;;9.70;99.90;;;;;;6195766;23;20417;-94
2023/03/13 08:17:55;;;;;;;13.63;2.30;;;9.70;99.90;;;;;;6203145;23;20591;-93
2023/03/13 08:20:21;;;;;;;;;;;9.70;99.90;;;;;;6227394;23;20011;-94
2023/03/13 08:22:47;;;;;;;6.15;1.55;;;9.80;99.90;;;;;;6198493;23;19900;-96
2023/03/13 08:25:13;;;;;;;15.20;1.70;;;9.80;99.90;;;;;;6196986;23;20005;-94
2023/03/13 08:27:39;;;;;;;9.27;2.53;;;9.90;99.90;;;;;;6219270;23;20001;-94
2023/03/13 08:30:05;;;;;;;7.25;1.33;;;9.90;99.90;;;;;;6193472;23;20020;-93
2023/03/13 08:32:35;;;;;;;9.13;2.00;;;10.00;99.90;;;;;;6223634;23;20003;-93
2023/03/13 08:35:02;;;;;;;8.77;1.40;;;10.10;99.90;;;;;;6207572;23;20015;-89
2023/03/13 08:37:29;;;;;;;13.40;2.25;;;10.10;99.90;;;;;;6216642;23;20009;-92
2023/03/13 08:39:55;;;;;;;5.50;1.88;;;10.20;99.90;;;;;;6207529;23;20009;-95
2023/03/13 08:42:22;;;;;;;8.13;1.05;;;10.20;99.90;;;;;;6207937;23;20020;-92
2023/03/13 08:44:48;;;;;;;6.07;1.20;;;10.30;99.90;;;;;;6228417;23;20001;-95
2023/03/13 08:47:14;;;;;;;11.85;1.63;;;10.30;99.90;;;;;;6195824;23;20011;-94
2023/03/13 08:49:39;;;;;;;7.65;1.05;;;10.40;99.90;;;;;;6226321;23;20001;-95
2023/03/13 08:52:06;;;;;;;6.60;1.50;;;10.40;99.90;;;;;;6204251;23;20099;-93
2023/03/13 08:54:32;;;;;;;2.83;0.80;;;10.40;99.90;;;;;;6200418;23;20012;-95
2023/03/13 08:56:58;;;;;;;5.97;1.10;;;10.40;99.90;;;;;;6222260;23;20017;-95
2023/03/13 08:59:24;;;;;;;6.40;1.30;;;10.40;99.90;;;;;;6203446;23;20007;-96
2023/03/13 09:01:50;;;;;;;3.85;0.75;;;10.50;99.90;;;;;;6229918;23;20000;-95
2023/03/13 09:04:16;;;;;;;7.15;1.23;;;10.50;99.90;;;;;;6225673;23;20012;-94
2023/03/13 09:06:42;;;;;;;3.10;1.30;;;10.50;99.90;;;;;;6203998;23;20008;-95
2023/03/13 09:09:09;;;;;;;5.55;1.15;;;10.50;99.90;;;;;;6192745;23;20030;-94
2023/03/13 09:11:36;;;;;;;6.78;1.40;;;10.50;99.90;;;;;;6214096;23;20080;-93
2023/03/13 09:14:02;;;;;;;2.63;0.68;;;10.50;99.90;;;;;;6190039;23;20072;-94
2023/03/13 09:16:30;;;;;;;3.50;0.88;;;10.50;99.90;;;;;;6189772;23;20039;-94
2023/03/13 09:18:57;;;;;;;5.90;0.80;;;10.50;99.90;;;;;;6189827;23;20023;-93
2023/03/13 09:21:28;;;;;;;0.63;0.30;;;10.50;99.90;;;;;;6190129;23;20000;-94
2023/03/13 09:23:56;;;;;;;4.53;0.60;;;10.60;99.90;;;;;;6205388;23;20464;-94
2023/03/13 09:26:22;;;;;;;2.78;0.20;;;10.50;99.90;;;;;;6215534;23;20112;-93
2023/03/13 09:28:47;;;;;;;1.55;0.30;;;10.50;99.90;;;;;;6192854;23;20060;-93
2023/03/13 09:31:16;;;;;;;1.00;0.38;;;10.40;99.90;;;;;;6196801;23;20009;-94
2023/03/13 09:33:43;;;;;;;2.78;0.60;;;10.40;99.90;;;;;;6196158;23;20443;-93
2023/03/13 09:36:10;;;;;;;6.60;0.98;;;10.40;99.90;;;;;;6222235;23;20012;-94
2023/03/13 09:38:39;;;;;;;3.92;0.45;;;10.40;99.90;;;;;;6226277;23;20121;-93
2023/03/13 09:41:30;;;;;;;4.93;0.98;;;10.40;99.90;;;;;;6232061;23;20027;-93
2023/03/13 09:43:55;;;;;;;;;;;10.40;99.90;;;;;;6243184;23;20014;-94
2023/03/13 09:47:00;;;;;;;4.95;0.85;;;10.50;99.90;;;;;;6250476;23;19896;-96
2023/03/13 09:50:03;;;;;;;2.95;0.80;;;10.40;99.90;;;;;;6227823;23;20008;-93
2023/03/13 09:52:39;;;;;;;4.28;0.60;;;10.50;99.90;;;;;;6229748;23;20343;-94
2023/03/13 09:55:47;;;;;;;6.95;0.85;;;10.50;99.90;;;;;;6226692;23;20004;-94
2023/03/13 09:58:23;;;;;;;0.65;0.40;;;10.60;99.90;;;;;;6211962;23;20079;-92
2023/03/13 10:01:02;;;;;;;0.40;0.10;;;10.60;99.90;;;;;;6220875;23;20031;-94
2023/03/13 10:03:30;;;;;;;0.45;0.30;;;10.60;99.90;;;;;;6225221;23;20011;-93
2023/03/13 10:06:04;;;;;;;0.60;0.22;;;10.60;99.90;;;;;;6225755;23;20015;-95
2023/03/13 10:08:33;;;;;;;0.45;0.10;;;10.60;99.90;;;;;;6225898;23;20502;-93
2023/03/13 10:11:08;;;;;;;0.20;0.15;;;10.60;99.90;;;;;;6225894;23;20082;-95
2023/03/13 10:14:13;;;;;;;0.28;0.15;;;10.60;99.90;;;;;;6236560;23;20000;-95
2023/03/13 10:16:42;;;;;;;0.75;0.47;;;10.70;99.90;;;;;;6225891;23;20008;-93
2023/03/13 10:19:20;;;;;;;0.20;0.10;;;10.70;99.90;;;;;;6225482;23;20015;-94
2023/03/13 10:21:52;;;;;;;0.60;0.10;;;10.80;99.90;;;;;;6224461;23;20000;-93
2023/03/13 10:24:37;;;;;;;0.45;0.13;;;10.90;99.90;;;;;;6225192;23;20012;-94
2023/03/13 10:27:03;;;;;;;0.55;0.20;;;10.90;99.90;;;;;;6224762;23;20000;-94
2023/03/13 10:29:38;;;;;;;1.55;0.13;;;10.90;99.90;;;;;;6224882;23;20008;-93
2023/03/13 10:32:06;;;;;;;1.30;0.22;;;10.90;99.90;;;;;;6224444;23;20096;-93
2023/03/13 10:35:03;;;;;;;0.80;0.13;;;11.00;99.90;;;;;;6224393;23;20008;-94
2023/03/13 10:37:30;;;;;;;0.00;0.00;;;11.00;99.90;;;;;;6224904;23;20016;-95
2023/03/13 10:40:23;;;;;;;0.75;0.15;;;11.00;99.90;;;;;;6224578;23;20028;-94
2023/03/13 10:42:52;;;;;;;1.63;0.40;;;11.00;99.90;;;;;;6223085;23;20012;-93
2023/03/13 10:45:22;;;;;;;1.17;0.30;;;11.00;99.90;;;;;;6224178;23;20008;-93
2023/03/13 10:48:01;;;;;;;3.25;0.35;;;11.00;99.90;;;;;;6225328;23;20004;-92
2023/03/13 10:50:31;;;;;;;0.47;0.30;;;11.10;99.90;;;;;;6227203;23;20019;-93
2023/03/13 10:53:16;;;;;;;1.23;0.50;;;11.10;99.90;;;;;;6231456;23;20050;-94
2023/03/13 10:59:21;;;;;;;4.53;0.57;;;11.10;99.90;;;;;;6239566;22;20087;-93
2023/03/13 11:01:49;;;;;;;3.25;0.77;;;11.10;99.90;;;;;;6213024;23;20036;-92
2023/03/13 11:04:37;;;;;;;1.95;0.40;;;11.10;99.90;;;;;;6213813;23;20064;-94
2023/03/13 11:07:10;;;;;;;2.15;0.50;;;11.10;99.90;;;;;;6235885;23;20048;-95
2023/03/13 11:09:36;;;;;;;3.60;0.60;;;11.00;99.90;;;;;;6223991;23;20001;-93
2023/03/13 11:12:20;;;;;;;2.13;0.50;;;11.00;99.90;;;;;;6196889;23;20011;-95
2023/03/13 11:14:46;;;;;;;0.20;0.10;;;11.00;99.90;;;;;;6194509;23;20008;-94
2023/03/13 11:17:39;;;;;;;1.98;0.45;;;11.00;99.90;;;;;;6222679;23;20016;-95
2023/03/13 11:20:13;;;;;;;0.90;0.30;;;11.00;99.90;;;;;;6198584;23;20423;-92
2023/03/13 11:23:07;;;;;;;3.75;0.45;;;11.10;99.90;;;;;;6222680;23;20010;-93
2023/03/13 11:25:54;;;;;;;3.30;0.77;;;11.20;99.90;;;;;;6221989;23;20007;-91
2023/03/13 11:28:20;;;;;;;2.90;0.55;;;11.20;99.90;;;;;;6248860;23;20002;-92
2023/03/13 11:31:12;;;;;;;3.03;0.70;;;11.20;99.90;;;;;;6222203;23;20099;-93
2023/03/13 11:33:52;;;;;;;1.65;0.52;;;11.20;99.90;;;;;;6248657;23;20031;-91
2023/03/13 11:36:34;;;;;;;1.23;0.30;;;11.30;99.90;;;;;;6223490;23;20000;-91
2023/03/13 11:39:21;;;;;;;2.35;0.40;;;11.30;99.90;;;;;;6223857;23;20439;-91
2023/03/13 11:41:49;;;;;;;2.20;0.77;;;11.30;99.90;;;;;;6253107;23;20008;-91
2023/03/13 11:44:39;;;;;;;3.08;0.85;;;11.30;99.90;;;;;;6234901;23;20060;-91
2023/03/13 11:47:13;;;;;;;3.80;0.50;;;11.40;99.90;;;;;;6234030;23;20004;-91
2023/03/13 11:49:48;;;;;;;4.43;0.85;;;11.40;99.90;;;;;;6256555;23;20023;-90
2023/03/13 11:52:29;;;;;;;6.03;0.60;;;11.40;99.90;;;;;;6230049;23;20004;-90
2023/03/13 11:55:25;;;;;;;1.65;0.73;;;11.40;99.90;;;;;;6226797;23;20007;-89
2023/03/13 11:58:03;;;;;;;3.67;0.75;;;11.30;99.90;;;;;;6219611;23;20066;-90
2023/03/13 12:00:57;;;;;;;5.00;1.00;;;11.20;99.90;;;;;;6221897;23;20225;-90
2023/03/13 12:03:36;;;;;;;3.70;0.90;;;11.20;99.90;;;;;;6221280;23;20008;-92
2023/03/13 12:06:03;;;;;;;3.20;0.52;;;11.10;99.90;;;;;;6222317;23;20012;-91
2023/03/13 12:08:50;;;;;;;2.38;0.75;;;11.10;99.90;;;;;;6222243;23;20047;-89
2023/03/13 12:11:42;;;;;;;4.95;0.82;;;11.00;99.90;;;;;;6221775;23;19996;-90
2023/03/13 12:14:49;;;;;;;3.00;0.80;;;10.90;99.90;;;;;;6246207;23;20005;-89
2023/03/13 12:17:35;;;;;;;4.70;0.77;;;10.80;99.90;;;;;;6200094;23;20008;-91
2023/03/13 12:20:19;;;;;;;2.92;0.60;;;10.70;99.90;;;;;;6245510;23;20050;-92
2023/03/13 12:22:57;;;;;;;1.08;0.50;;;10.70;99.90;;;;;;6218954;23;20012;-90
2023/03/13 12:25:27;;;;;;;2.72;0.55;;;10.60;99.90;;;;;;6245533;23;20086;-90
2023/03/13 12:28:23;;;;;;;1.55;0.57;;;10.50;99.90;;;;;;6245665;23;20004;-92
2023/03/13 12:31:10;;;;;;;1.25;0.55;;;10.50;99.90;;;;;;6215105;23;20019;-91
2023/03/13 12:33:54;;;;;;;2.95;0.40;;;10.40;99.90;;;;;;6246300;23;20007;-90
2023/03/13 12:36:30;;;;;;;4.13;0.82;;;10.40;99.90;;;;;;6218591;23;20523;-90
2023/03/13 12:39:19;;;;;;;2.88;0.50;;;10.30;99.90;;;;;;6218572;23;20012;-89
2023/03/13 12:42:16;;;;;;;3.33;0.50;;;10.20;99.90;;;;;;6225700;23;20060;-89
2023/03/13 12:44:42;;;;;;;3.13;0.70;;;10.20;99.90;;;;;;6219250;23;20448;-90
2023/03/13 12:47:34;;;;;;;4.28;0.70;;;10.20;99.90;;;;;;6217804;23;20023;-90
2023/03/13 12:50:28;;;;;;;5.15;0.68;;;10.20;99.90;;;;;;6217845;23;20083;-91
2023/03/13 12:53:21;;;;;;;5.25;0.80;;;10.20;99.90;;;;;;6093092;23;20006;-87
2023/03/13 12:55:46;;;;;;;5.47;0.80;;;10.20;99.90;;;;;;6070015;23;20014;-88
2023/03/13 12:58:29;;;;;;;4.25;1.02;;;10.20;99.90;;;;;;6093757;23;20091;-91
2023/03/13 13:01:01;;;;;;;5.72;1.08;;;10.20;99.90;;;;;;6094443;23;20013;-91
2023/03/13 13:03:35;;;;;;;3.75;0.73;;;10.10;99.90;;;;;;6070195;23;20214;-91
2023/03/13 13:06:10;;;;;;;7.40;2.28;;;10.10;99.90;;;;;;6070805;23;20005;-91
2023/03/13 13:08:52;;;;;;;4.93;1.58;;;10.10;99.90;;;;;;6069235;23;20006;-90
2023/03/13 13:11:36;;;;;;;5.85;0.95;;;10.10;99.90;;;;;;6071676;23;20021;-90